createdAt,value
2023-08-17T00:00:11.027Z,17.04
2023-08-17T00:01:11.040Z,17.04
2023-08-17T00:02:11.048Z,17.05
2023-08-17T00:03:11.059Z,17.04
2023-08-17T00:04:11.013Z,17.04
2023-08-17T00:05:10.946Z,17.04
2023-08-17T00:06:10.949Z,17.05
2023-08-17T00:07:10.922Z,17.06
2023-08-17T00:08:10.937Z,17.04
2023-08-17T00:09:10.922Z,17.08
2023-08-17T00:10:13.935Z,17.08
2023-08-17T00:11:13.908Z,17.05
2023-08-17T00:12:10.857Z,17.08
2023-08-17T00:13:10.842Z,17.09
2023-08-17T00:14:10.836Z,17.11
2023-08-17T00:15:10.828Z,17.09
2023-08-17T00:16:10.865Z,17.06
2023-08-17T00:17:10.816Z,17.08
2023-08-17T00:18:10.843Z,17.11
2023-08-17T00:19:10.758Z,17.02
2023-08-17T00:20:10.762Z,17.02
2023-08-17T00:21:10.757Z,17.04
2023-08-17T00:22:10.737Z,16.99
2023-08-17T00:23:10.719Z,16.99
2023-08-17T00:24:10.740Z,16.99
2023-08-17T00:25:10.708Z,16.97
2023-08-17T00:26:10.676Z,17.02
2023-08-17T00:27:10.663Z,17.01
2023-08-17T00:28:10.646Z,16.99
2023-08-17T00:29:10.672Z,17.02
2023-08-17T00:30:13.736Z,16.97
2023-08-17T00:31:13.666Z,16.99
2023-08-17T00:32:10.592Z,16.94
2023-08-17T00:33:10.605Z,16.93
2023-08-17T00:34:10.632Z,16.97
2023-08-17T00:35:10.593Z,16.97
2023-08-17T00:36:10.565Z,16.97
2023-08-17T00:37:10.541Z,17.01
2023-08-17T00:38:10.561Z,17.01
2023-08-17T00:39:10.525Z,16.96
2023-08-17T00:40:10.510Z,16.94
2023-08-17T00:41:10.467Z,16.99
2023-08-17T00:42:10.470Z,16.96
2023-08-17T00:43:10.436Z,17.01
2023-08-17T00:44:10.465Z,17.02
2023-08-17T00:45:10.447Z,17.05
2023-08-17T00:46:10.718Z,17.05
2023-08-17T00:47:10.422Z,17.04
2023-08-17T00:48:10.520Z,17.05
2023-08-17T00:49:10.460Z,16.99
2023-08-17T00:50:13.524Z,17.01
2023-08-17T00:51:13.585Z,16.94
2023-08-17T00:52:10.527Z,16.90
2023-08-17T00:53:10.343Z,16.90
2023-08-17T00:54:10.315Z,16.93
2023-08-17T00:55:10.327Z,16.94
2023-08-17T00:56:10.507Z,16.96
2023-08-17T00:57:10.279Z,16.97
2023-08-17T00:58:10.396Z,16.99
2023-08-17T00:59:10.455Z,17.01
2023-08-17T01:00:10.216Z,16.99
2023-08-17T01:01:10.291Z,16.97
2023-08-17T01:02:10.196Z,16.99
2023-08-17T01:03:10.181Z,17.02
2023-08-17T01:04:10.165Z,16.97
2023-08-17T01:05:10.307Z,16.96
2023-08-17T01:06:10.169Z,16.96
2023-08-17T01:07:10.152Z,16.96
2023-08-17T01:08:10.248Z,17.02
2023-08-17T01:09:10.111Z,17.05
2023-08-17T01:10:13.148Z,17.04
2023-08-17T01:11:13.084Z,17.02
2023-08-17T01:12:10.156Z,17.01
2023-08-17T01:13:10.036Z,16.91
2023-08-17T01:14:10.028Z,16.87
2023-08-17T01:15:10.017Z,16.89
2023-08-17T01:16:10.070Z,16.87
2023-08-17T01:17:10.010Z,16.87
2023-08-17T01:18:09.979Z,16.89
2023-08-17T01:19:09.999Z,16.90
2023-08-17T01:20:09.955Z,16.93
2023-08-17T01:21:09.937Z,16.96
2023-08-17T01:22:09.942Z,16.97
2023-08-17T01:23:09.938Z,16.89
2023-08-17T01:24:09.898Z,16.87
2023-08-17T01:25:09.877Z,16.86
2023-08-17T01:26:09.869Z,16.81
2023-08-17T01:27:09.870Z,16.81
2023-08-17T01:28:09.869Z,16.79
2023-08-17T01:29:09.820Z,16.78
2023-08-17T01:30:12.821Z,16.78
2023-08-17T01:31:12.868Z,16.76
2023-08-17T01:32:09.807Z,16.79
2023-08-17T01:33:09.778Z,16.79
2023-08-17T01:34:09.757Z,16.81
2023-08-17T01:35:09.733Z,16.78
2023-08-17T01:36:09.729Z,16.76
2023-08-17T01:37:09.754Z,16.74
2023-08-17T01:38:09.713Z,16.69
2023-08-17T01:39:09.715Z,16.71
2023-08-17T01:40:09.671Z,16.71
2023-08-17T01:41:09.658Z,16.68
2023-08-17T01:42:09.679Z,16.68
2023-08-17T01:43:09.648Z,16.68
2023-08-17T01:44:09.677Z,16.66
2023-08-17T01:45:09.620Z,16.68
2023-08-17T01:46:09.588Z,16.71
2023-08-17T01:47:09.570Z,16.72
2023-08-17T01:48:09.581Z,16.71
2023-08-17T01:49:09.535Z,16.72
2023-08-17T01:50:12.564Z,16.72
2023-08-17T01:51:12.522Z,16.74
2023-08-17T01:52:09.506Z,16.79
2023-08-17T01:53:09.523Z,16.83
2023-08-17T01:54:09.487Z,16.79
2023-08-17T01:55:09.454Z,16.76
2023-08-17T01:56:09.619Z,16.75
2023-08-17T01:57:09.639Z,16.75
2023-08-17T01:58:09.608Z,16.76
2023-08-17T01:59:09.619Z,16.74
2023-08-17T02:00:09.429Z,16.78
2023-08-17T02:01:09.636Z,16.78
2023-08-17T02:02:09.481Z,16.75
2023-08-17T02:03:09.466Z,16.76
2023-08-17T02:04:09.362Z,16.74
2023-08-17T02:05:09.427Z,16.74
2023-08-17T02:06:09.471Z,16.74
2023-08-17T02:07:09.341Z,16.76
2023-08-17T02:08:09.281Z,16.81
2023-08-17T02:09:09.270Z,16.81
2023-08-17T02:10:12.246Z,16.75
2023-08-17T02:11:12.510Z,16.74
2023-08-17T02:12:09.306Z,16.72
2023-08-17T02:13:17.787Z,16.68
2023-08-17T02:14:10.191Z,16.69
2023-08-17T02:15:09.186Z,16.71
2023-08-17T02:16:09.175Z,16.74
2023-08-17T02:17:09.149Z,16.72
2023-08-17T02:18:09.161Z,16.69
2023-08-17T02:19:09.123Z,16.75
2023-08-17T02:20:09.116Z,16.78
2023-08-17T02:21:09.095Z,16.81
2023-08-17T02:22:09.086Z,16.81
2023-08-17T02:23:09.099Z,16.84
2023-08-17T02:24:09.084Z,16.84
2023-08-17T02:25:09.044Z,16.81
2023-08-17T02:26:09.017Z,16.86
2023-08-17T02:27:09.024Z,16.78
2023-08-17T02:28:09.038Z,16.74
2023-08-17T02:29:09.014Z,16.66
2023-08-17T02:30:11.973Z,16.64
2023-08-17T02:31:11.999Z,16.58
2023-08-17T02:32:09.000Z,16.65
2023-08-17T02:33:08.977Z,16.61
2023-08-17T02:34:08.957Z,16.68
2023-08-17T02:35:08.901Z,16.68
2023-08-17T02:36:08.903Z,16.60
2023-08-17T02:37:08.878Z,16.58
2023-08-17T02:38:08.908Z,16.61
2023-08-17T02:39:08.854Z,16.58
2023-08-17T02:40:08.836Z,16.65
2023-08-17T02:41:08.836Z,16.64
2023-08-17T02:42:08.798Z,16.56
2023-08-17T02:43:08.795Z,16.57
2023-08-17T02:44:08.805Z,16.54
2023-08-17T02:45:08.754Z,16.57
2023-08-17T02:46:08.753Z,16.54
2023-08-17T02:47:08.737Z,16.56
2023-08-17T02:48:08.724Z,16.56
2023-08-17T02:49:08.728Z,16.56
2023-08-17T02:50:11.684Z,16.60
2023-08-17T02:51:11.691Z,16.58
2023-08-17T02:52:08.672Z,16.57
2023-08-17T02:53:08.683Z,16.53
2023-08-17T02:54:08.662Z,16.58
2023-08-17T02:55:08.729Z,16.61
2023-08-17T02:56:09.241Z,16.66
2023-08-17T02:57:08.830Z,16.64
2023-08-17T02:58:08.817Z,16.65
2023-08-17T02:59:08.719Z,16.69
2023-08-17T03:00:08.765Z,16.66
2023-08-17T03:01:08.589Z,16.68
2023-08-17T03:02:08.563Z,16.66
2023-08-17T03:03:08.542Z,16.58
2023-08-17T03:04:08.512Z,16.60
2023-08-17T03:05:08.475Z,16.65
2023-08-17T03:06:08.458Z,16.65
2023-08-17T03:07:08.452Z,16.65
2023-08-17T03:08:08.427Z,16.69
2023-08-17T03:09:08.444Z,16.68
2023-08-17T03:10:11.431Z,16.74
2023-08-17T03:11:11.414Z,16.74
2023-08-17T03:12:08.402Z,16.75
2023-08-17T03:13:08.389Z,16.76
2023-08-17T03:14:08.343Z,16.75
2023-08-17T03:15:08.407Z,16.72
2023-08-17T03:16:08.379Z,16.66
2023-08-17T03:17:08.303Z,16.71
2023-08-17T03:18:08.321Z,16.72
2023-08-17T03:19:08.284Z,16.75
2023-08-17T03:20:08.280Z,16.74
2023-08-17T03:21:08.335Z,16.66
2023-08-17T03:22:08.241Z,16.65
2023-08-17T03:23:08.221Z,16.68
2023-08-17T03:24:08.203Z,16.71
2023-08-17T03:25:08.195Z,16.71
2023-08-17T03:26:08.248Z,16.69
2023-08-17T03:27:08.197Z,16.68
2023-08-17T03:28:08.164Z,16.65
2023-08-17T03:29:08.141Z,16.68
2023-08-17T03:30:11.123Z,16.72
2023-08-17T03:31:11.192Z,16.72
2023-08-17T03:32:08.133Z,16.68
2023-08-17T03:33:08.130Z,16.65
2023-08-17T03:34:08.076Z,16.60
2023-08-17T03:35:08.101Z,16.58
2023-08-17T03:36:08.038Z,16.61
2023-08-17T03:37:08.029Z,16.61
2023-08-17T03:38:08.037Z,16.61
2023-08-17T03:39:07.997Z,16.65
2023-08-17T03:40:07.992Z,16.61
2023-08-17T03:41:07.989Z,16.58
2023-08-17T03:42:07.962Z,16.57
2023-08-17T03:43:07.969Z,16.60
2023-08-17T03:44:07.951Z,16.65
2023-08-17T03:45:07.928Z,16.60
2023-08-17T03:46:07.951Z,16.56
2023-08-17T03:47:08.269Z,16.56
2023-08-17T03:48:08.027Z,16.51
2023-08-17T03:49:11.134Z,16.46
2023-08-17T03:50:12.003Z,16.51
2023-08-17T03:51:10.849Z,16.50
2023-08-17T03:52:07.906Z,16.49
2023-08-17T03:53:07.821Z,16.50
2023-08-17T03:54:07.826Z,16.51
2023-08-17T03:55:07.783Z,16.51
2023-08-17T03:56:07.761Z,16.54
2023-08-17T03:57:07.751Z,16.54
2023-08-17T03:58:07.755Z,16.57
2023-08-17T03:59:07.755Z,16.54
2023-08-17T04:00:07.716Z,16.57
2023-08-17T04:01:07.848Z,16.53
2023-08-17T04:02:07.696Z,16.53
2023-08-17T04:03:07.695Z,16.58
2023-08-17T04:04:07.657Z,16.54
2023-08-17T04:05:07.722Z,16.50
2023-08-17T04:06:07.625Z,16.50
2023-08-17T04:07:07.608Z,16.53
2023-08-17T04:08:07.602Z,16.54
2023-08-17T04:09:07.680Z,16.51
2023-08-17T04:10:10.598Z,16.49
2023-08-17T04:11:10.554Z,16.53
2023-08-17T04:12:07.673Z,16.49
2023-08-17T04:13:07.566Z,16.49
2023-08-17T04:14:07.524Z,16.47
2023-08-17T04:15:07.546Z,16.46
2023-08-17T04:16:07.520Z,16.46
2023-08-17T04:17:07.507Z,16.43
2023-08-17T04:18:07.530Z,16.47
2023-08-17T04:19:07.471Z,16.51
2023-08-17T04:20:07.434Z,16.53
2023-08-17T04:21:07.469Z,16.50
2023-08-17T04:22:07.413Z,16.54
2023-08-17T04:23:07.394Z,16.53
2023-08-17T04:24:07.393Z,16.49
2023-08-17T04:25:07.367Z,16.49
2023-08-17T04:26:07.387Z,16.49
2023-08-17T04:27:07.333Z,16.43
2023-08-17T04:28:07.320Z,16.47
2023-08-17T04:29:07.313Z,16.47
2023-08-17T04:30:10.310Z,16.42
2023-08-17T04:31:10.388Z,16.39
2023-08-17T04:32:07.260Z,16.35
2023-08-17T04:33:07.245Z,16.36
2023-08-17T04:34:07.241Z,16.35
2023-08-17T04:35:07.227Z,16.33
2023-08-17T04:36:07.202Z,16.36
2023-08-17T04:37:07.214Z,16.28
2023-08-17T04:38:07.186Z,16.31
2023-08-17T04:39:07.171Z,16.32
2023-08-17T04:40:07.209Z,16.33
2023-08-17T04:41:07.136Z,16.29
2023-08-17T04:42:07.154Z,16.29
2023-08-17T04:43:07.116Z,16.26
2023-08-17T04:44:07.112Z,16.29
2023-08-17T04:45:07.078Z,16.31
2023-08-17T04:46:07.137Z,16.24
2023-08-17T04:47:07.049Z,16.24
2023-08-17T04:48:07.103Z,16.28
2023-08-17T04:49:07.015Z,16.31
2023-08-17T04:50:10.008Z,16.29
2023-08-17T04:51:10.015Z,16.28
2023-08-17T04:52:06.981Z,16.32
2023-08-17T04:53:07.004Z,16.31
2023-08-17T04:54:06.952Z,16.28
2023-08-17T04:55:06.935Z,16.29
2023-08-17T04:56:06.935Z,16.32
2023-08-17T04:57:06.915Z,16.31
2023-08-17T04:58:06.926Z,16.21
2023-08-17T04:59:06.881Z,16.21
2023-08-17T05:00:06.880Z,16.26
2023-08-17T05:01:06.866Z,16.28
2023-08-17T05:02:06.857Z,16.23
2023-08-17T05:03:09.642Z,16.23
2023-08-17T05:04:07.862Z,16.26
2023-08-17T05:05:06.806Z,16.24
2023-08-17T05:06:06.798Z,16.24
2023-08-17T05:07:06.786Z,16.23
2023-08-17T05:08:06.761Z,16.20
2023-08-17T05:09:07.351Z,16.21
2023-08-17T05:10:09.737Z,16.20
2023-08-17T05:11:09.729Z,16.17
2023-08-17T05:12:06.707Z,16.15
2023-08-17T05:13:06.690Z,16.16
2023-08-17T05:14:06.703Z,16.23
2023-08-17T05:15:07.810Z,16.24
2023-08-17T05:16:06.690Z,16.20
2023-08-17T05:17:06.632Z,16.17
2023-08-17T05:18:06.670Z,16.17
2023-08-17T05:19:06.627Z,16.21
2023-08-17T05:20:06.593Z,16.24
2023-08-17T05:21:06.581Z,16.24
2023-08-17T05:22:06.568Z,16.23
2023-08-17T05:23:06.540Z,16.21
2023-08-17T05:24:06.573Z,16.21
2023-08-17T05:25:06.589Z,16.20
2023-08-17T05:26:06.714Z,16.17
2023-08-17T05:27:06.489Z,16.20
2023-08-17T05:28:06.700Z,16.21
2023-08-17T05:29:06.626Z,16.20
2023-08-17T05:30:09.556Z,16.20
2023-08-17T05:31:09.666Z,16.21
2023-08-17T05:32:06.544Z,16.21
2023-08-17T05:33:06.526Z,16.23
2023-08-17T05:34:06.670Z,16.28
2023-08-17T05:35:06.398Z,16.28
2023-08-17T05:36:06.413Z,16.28
2023-08-17T05:37:06.380Z,16.28
2023-08-17T05:38:06.346Z,16.23
2023-08-17T05:39:06.333Z,16.24
2023-08-17T05:40:06.396Z,16.26
2023-08-17T05:41:06.343Z,16.28
2023-08-17T05:42:06.298Z,16.28
2023-08-17T05:43:06.292Z,16.26
2023-08-17T05:44:06.268Z,16.24
2023-08-17T05:45:06.252Z,16.28
2023-08-17T05:46:06.232Z,16.29
2023-08-17T05:47:06.276Z,16.31
2023-08-17T05:48:06.239Z,16.33
2023-08-17T05:49:06.196Z,16.36
2023-08-17T05:50:09.180Z,16.33
2023-08-17T05:51:09.164Z,16.26
2023-08-17T05:52:06.257Z,16.26
2023-08-17T05:53:06.171Z,16.28
2023-08-17T05:54:13.670Z,16.32
2023-08-17T05:55:06.096Z,16.31
2023-08-17T05:56:06.082Z,16.31
2023-08-17T05:57:06.099Z,16.28
2023-08-17T05:58:06.083Z,16.28
2023-08-17T05:59:06.074Z,16.29
2023-08-17T06:00:06.044Z,16.28
2023-08-17T06:01:06.056Z,16.28
2023-08-17T06:02:06.010Z,16.29
2023-08-17T06:03:06.052Z,16.24
2023-08-17T06:04:06.959Z,16.29
2023-08-17T06:05:05.961Z,16.29
2023-08-17T06:06:05.995Z,16.33
2023-08-17T06:07:05.943Z,16.33
2023-08-17T06:08:05.929Z,16.32
2023-08-17T06:09:05.912Z,16.33
2023-08-17T06:10:08.904Z,16.36
2023-08-17T06:11:08.902Z,16.33
2023-08-17T06:12:05.865Z,16.32
2023-08-17T06:13:05.844Z,16.29
2023-08-17T06:14:05.934Z,16.31
2023-08-17T06:15:05.848Z,16.32
2023-08-17T06:16:05.899Z,16.33
2023-08-17T06:17:05.788Z,16.38
2023-08-17T06:18:05.826Z,16.41
2023-08-17T06:19:05.767Z,16.41
2023-08-17T06:20:05.765Z,16.33
2023-08-17T06:21:05.751Z,16.35
2023-08-17T06:22:05.749Z,16.39
2023-08-17T06:23:05.708Z,16.41
2023-08-17T06:24:05.740Z,16.39
2023-08-17T06:25:05.681Z,16.42
2023-08-17T06:26:05.693Z,16.41
2023-08-17T06:27:05.692Z,16.38
2023-08-17T06:28:05.665Z,16.46
2023-08-17T06:29:05.629Z,16.41
2023-08-17T06:30:08.631Z,16.39
2023-08-17T06:31:08.738Z,16.36
2023-08-17T06:32:05.584Z,16.42
2023-08-17T06:33:05.609Z,16.41
2023-08-17T06:34:05.575Z,16.43
2023-08-17T06:35:05.573Z,16.43
2023-08-17T06:36:05.646Z,16.39
2023-08-17T06:37:05.556Z,16.47
2023-08-17T06:38:05.532Z,16.51
2023-08-17T06:39:05.485Z,16.56
2023-08-17T06:40:05.480Z,16.54
2023-08-17T06:41:05.465Z,16.47
2023-08-17T06:42:05.469Z,16.39
2023-08-17T06:43:05.461Z,16.43
2023-08-17T06:44:05.419Z,16.46
2023-08-17T06:45:05.400Z,16.51
2023-08-17T06:46:05.422Z,16.56
2023-08-17T06:47:05.392Z,16.57
2023-08-17T06:48:05.398Z,16.65
2023-08-17T06:49:05.369Z,16.61
2023-08-17T06:50:10.094Z,16.54
2023-08-17T06:51:08.335Z,16.56
2023-08-17T06:52:05.333Z,16.57
2023-08-17T06:53:05.334Z,16.61
2023-08-17T06:54:05.291Z,16.60
2023-08-17T06:55:05.265Z,16.65
2023-08-17T06:56:05.256Z,16.68
2023-08-17T06:57:05.322Z,16.74
2023-08-17T06:58:05.234Z,16.74
2023-08-17T06:59:05.246Z,16.79
2023-08-17T07:00:05.223Z,16.79
2023-08-17T07:01:05.210Z,16.75
2023-08-17T07:02:05.215Z,16.72
2023-08-17T07:03:05.319Z,16.74
2023-08-17T07:04:05.136Z,16.76
2023-08-17T07:05:05.145Z,16.83
2023-08-17T07:06:05.112Z,16.75
2023-08-17T07:07:05.096Z,16.66
2023-08-17T07:08:05.097Z,16.68
2023-08-17T07:09:05.201Z,16.72
2023-08-17T07:10:08.055Z,16.72
2023-08-17T07:11:08.036Z,16.72
2023-08-17T07:12:05.046Z,16.75
2023-08-17T07:13:05.051Z,16.76
2023-08-17T07:14:05.026Z,16.79
2023-08-17T07:15:05.063Z,16.86
2023-08-17T07:16:04.997Z,16.91
2023-08-17T07:17:04.967Z,16.86
2023-08-17T07:18:05.005Z,16.84
2023-08-17T07:19:04.946Z,16.86
2023-08-17T07:20:15.658Z,16.86
2023-08-17T07:21:05.958Z,16.90
2023-08-17T07:22:04.892Z,16.91
2023-08-17T07:23:04.891Z,16.89
2023-08-17T07:24:04.858Z,16.91
2023-08-17T07:25:04.856Z,16.91
2023-08-17T07:26:04.886Z,16.94
2023-08-17T07:27:04.839Z,16.94
2023-08-17T07:28:04.809Z,16.99
2023-08-17T07:29:04.835Z,17.02
2023-08-17T07:30:07.780Z,17.09
2023-08-17T07:31:07.760Z,17.11
2023-08-17T07:32:04.841Z,17.19
2023-08-17T07:33:04.779Z,17.24
2023-08-17T07:34:04.722Z,17.26
2023-08-17T07:35:04.755Z,17.23
2023-08-17T07:36:04.696Z,17.36
2023-08-17T07:37:04.708Z,17.46
2023-08-17T07:38:09.230Z,17.59
2023-08-17T07:39:05.647Z,17.60
2023-08-17T07:40:04.952Z,17.70
2023-08-17T07:41:04.651Z,17.68
2023-08-17T07:42:04.678Z,17.67
2023-08-17T07:43:04.616Z,17.71
2023-08-17T07:44:04.577Z,17.74
2023-08-17T07:45:04.567Z,17.65
2023-08-17T07:46:04.598Z,17.56
2023-08-17T07:47:04.582Z,17.63
2023-08-17T07:48:04.630Z,17.60
2023-08-17T07:49:05.153Z,17.60
2023-08-17T07:50:07.582Z,17.63
2023-08-17T07:51:07.486Z,17.59
2023-08-17T07:52:04.508Z,17.56
2023-08-17T07:53:04.455Z,17.51
2023-08-17T07:54:04.467Z,17.51
2023-08-17T07:55:04.437Z,17.52
2023-08-17T07:56:04.426Z,17.60
2023-08-17T07:57:04.433Z,17.65
2023-08-17T07:58:04.439Z,17.64
2023-08-17T07:59:04.382Z,17.60
2023-08-17T08:00:04.356Z,17.60
2023-08-17T08:01:04.526Z,17.59
2023-08-17T08:02:04.378Z,17.64
2023-08-17T08:03:04.338Z,17.64
2023-08-17T08:04:04.306Z,17.68
2023-08-17T08:05:04.316Z,17.76
2023-08-17T08:06:04.332Z,17.68
2023-08-17T08:07:04.269Z,17.71
2023-08-17T08:08:04.287Z,17.63
2023-08-17T08:09:04.266Z,17.60
2023-08-17T08:10:07.231Z,17.56
2023-08-17T08:11:07.220Z,17.56
2023-08-17T08:12:04.223Z,17.48
2023-08-17T08:13:04.226Z,17.51
2023-08-17T08:14:04.178Z,17.51
2023-08-17T08:15:04.187Z,17.56
2023-08-17T08:16:04.182Z,17.64
2023-08-17T08:17:04.170Z,17.64
2023-08-17T08:18:04.142Z,17.72
2023-08-17T08:19:04.162Z,17.86
2023-08-17T08:20:04.108Z,17.92
2023-08-17T08:21:04.076Z,17.87
2023-08-17T08:22:04.073Z,17.90
2023-08-17T08:23:04.065Z,17.98
2023-08-17T08:24:04.984Z,17.95
2023-08-17T08:25:04.036Z,17.92
2023-08-17T08:26:04.033Z,17.92
2023-08-17T08:27:04.006Z,17.94
2023-08-17T08:28:03.986Z,18.04
2023-08-17T08:29:03.976Z,18.07
2023-08-17T08:30:06.984Z,18.03
2023-08-17T08:31:07.008Z,18.01
2023-08-17T08:32:04.000Z,17.97
2023-08-17T08:33:03.948Z,18.00
2023-08-17T08:34:03.970Z,18.01
2023-08-17T08:35:03.892Z,17.90
2023-08-17T08:36:03.878Z,17.92
2023-08-17T08:37:03.872Z,18.01
2023-08-17T08:38:03.891Z,18.08
2023-08-17T08:39:03.878Z,18.20
2023-08-17T08:40:03.831Z,18.25
2023-08-17T08:41:03.827Z,18.37
2023-08-17T08:42:03.806Z,18.44
2023-08-17T08:43:03.853Z,18.44
2023-08-17T08:44:03.774Z,18.55
2023-08-17T08:45:03.777Z,18.65
2023-08-17T08:46:03.763Z,18.65
2023-08-17T08:47:03.750Z,18.73
2023-08-17T08:48:03.812Z,18.83
2023-08-17T08:49:03.788Z,18.89
2023-08-17T08:50:06.729Z,18.92
2023-08-17T08:51:06.690Z,18.98
2023-08-17T08:52:03.677Z,19.08
2023-08-17T08:53:03.668Z,19.18
2023-08-17T08:54:03.679Z,19.39
2023-08-17T08:55:03.642Z,19.41
2023-08-17T08:56:03.645Z,19.44
2023-08-17T08:57:03.617Z,19.37
2023-08-17T08:58:03.647Z,19.36
2023-08-17T08:59:03.583Z,19.26
2023-08-17T09:00:03.589Z,19.37
2023-08-17T09:02:04.531Z,19.55
2023-08-17T09:03:03.569Z,19.52
2023-08-17T09:04:03.679Z,19.67
2023-08-17T09:05:03.564Z,19.77
2023-08-17T09:06:03.531Z,19.59
2023-08-17T09:07:04.730Z,19.55
2023-08-17T09:08:03.491Z,19.70
2023-08-17T09:09:03.428Z,19.86
2023-08-17T09:10:06.423Z,20.02
2023-08-17T09:11:06.414Z,19.63
2023-08-17T09:12:03.427Z,19.52
2023-08-17T09:13:03.387Z,19.51
2023-08-17T09:14:03.358Z,19.44
2023-08-17T09:15:03.376Z,19.26
2023-08-17T09:17:03.349Z,19.08
2023-08-17T09:18:03.391Z,18.93
2023-08-17T09:19:03.298Z,18.83
2023-08-17T09:20:03.263Z,18.78
2023-08-17T09:21:03.263Z,18.78
2023-08-17T09:22:03.246Z,18.75
2023-08-17T09:23:03.264Z,18.71
2023-08-17T09:24:03.220Z,18.73
2023-08-17T09:25:03.669Z,18.74
2023-08-17T09:26:05.929Z,18.86
2023-08-17T09:27:03.211Z,18.98
2023-08-17T09:28:03.161Z,18.99
2023-08-17T09:29:03.415Z,18.98
2023-08-17T09:30:06.119Z,19.02
2023-08-17T09:31:06.144Z,19.14
2023-08-17T09:32:03.141Z,19.07
2023-08-17T09:33:03.142Z,19.09
2023-08-17T09:34:03.063Z,18.99
2023-08-17T09:35:03.092Z,19.08
2023-08-17T09:36:03.046Z,19.16
2023-08-17T09:37:04.003Z,19.19
2023-08-17T09:38:03.012Z,19.16
2023-08-17T09:39:03.053Z,19.30
2023-08-17T09:40:02.973Z,19.31
2023-08-17T09:41:02.989Z,19.26
2023-08-17T09:42:02.961Z,19.37
2023-08-17T09:43:02.954Z,19.33
2023-08-17T09:44:02.924Z,19.36
2023-08-17T09:45:02.941Z,19.29
2023-08-17T09:46:02.912Z,19.34
2023-08-17T09:47:02.907Z,19.19
2023-08-17T09:48:03.832Z,19.24
2023-08-17T09:49:02.883Z,19.41
2023-08-17T09:50:05.830Z,19.54
2023-08-17T09:51:05.827Z,19.51
2023-08-17T09:52:02.814Z,19.47
2023-08-17T09:53:02.812Z,19.52
2023-08-17T09:54:05.101Z,19.55
2023-08-17T09:55:08.107Z,19.58
2023-08-17T09:56:03.756Z,19.41
2023-08-17T09:57:02.753Z,19.19
2023-08-17T09:58:02.783Z,19.12
2023-08-17T09:59:02.730Z,19.11
2023-08-17T10:00:02.723Z,19.04
2023-08-17T10:01:02.730Z,19.12
2023-08-17T10:02:02.671Z,19.19
2023-08-17T10:03:07.732Z,19.18
2023-08-17T10:04:03.637Z,19.21
2023-08-17T10:05:02.709Z,19.24
2023-08-17T10:06:02.617Z,19.24
2023-08-17T10:07:02.633Z,19.34
2023-08-17T10:08:02.584Z,19.40
2023-08-17T10:09:02.580Z,19.47
2023-08-17T10:10:05.726Z,19.33
2023-08-17T10:11:05.556Z,19.30
2023-08-17T10:12:02.753Z,19.37
2023-08-17T10:13:06.164Z,19.37
2023-08-17T10:14:02.508Z,19.51
2023-08-17T10:15:02.495Z,19.56
2023-08-17T10:16:02.496Z,19.52
2023-08-17T10:17:02.464Z,19.45
2023-08-17T10:18:02.514Z,19.51
2023-08-17T10:19:02.440Z,19.52
2023-08-17T10:20:02.455Z,19.48
2023-08-17T10:21:02.409Z,19.47
2023-08-17T10:22:02.389Z,19.41
2023-08-17T10:23:02.405Z,19.36
2023-08-17T10:24:02.381Z,19.30
2023-08-17T10:25:02.385Z,19.22
2023-08-17T10:26:02.399Z,19.26
2023-08-17T10:27:02.388Z,19.33
2023-08-17T10:28:02.314Z,19.36
2023-08-17T10:29:04.830Z,19.49
2023-08-17T10:30:09.236Z,19.64
2023-08-17T10:31:05.322Z,19.58
2023-08-17T10:32:02.397Z,19.70
2023-08-17T10:33:02.337Z,19.79
2023-08-17T10:34:02.218Z,19.89
2023-08-17T10:35:02.210Z,19.86
2023-08-17T10:36:02.237Z,19.94
2023-08-17T10:37:02.185Z,20.00
2023-08-17T10:38:02.183Z,19.95
2023-08-17T10:39:02.154Z,20.00
2023-08-17T10:40:02.146Z,20.14
2023-08-17T10:41:02.156Z,20.11
2023-08-17T10:42:02.183Z,19.95
2023-08-17T10:43:02.135Z,19.92
2023-08-17T10:44:02.080Z,20.02
2023-08-17T10:45:02.083Z,20.02
2023-08-17T10:46:02.082Z,20.09
2023-08-17T10:47:02.070Z,20.07
2023-08-17T10:48:02.129Z,19.89
2023-08-17T10:49:02.010Z,19.89
2023-08-17T10:50:05.016Z,19.88
2023-08-17T10:51:05.008Z,19.73
2023-08-17T10:52:02.006Z,19.67
2023-08-17T10:53:01.966Z,19.55
2023-08-17T10:54:01.947Z,19.36
2023-08-17T10:55:01.946Z,19.39
2023-08-17T10:56:01.919Z,19.48
2023-08-17T10:57:01.950Z,19.55
2023-08-17T10:58:01.886Z,19.56
2023-08-17T10:59:01.885Z,19.49
2023-08-17T11:00:01.888Z,19.40
2023-08-17T11:01:01.857Z,19.40
2023-08-17T11:02:01.836Z,19.44
2023-08-17T11:03:01.905Z,19.49
2023-08-17T11:04:01.807Z,19.58
2023-08-17T11:05:01.848Z,19.59
2023-08-17T11:06:01.777Z,19.62
2023-08-17T11:07:01.814Z,19.58
2023-08-17T11:08:01.805Z,19.55
2023-08-17T11:09:01.807Z,19.51
2023-08-17T11:10:04.754Z,19.58
2023-08-17T11:11:04.730Z,19.64
2023-08-17T11:12:01.709Z,19.51
2023-08-17T11:13:01.694Z,19.49
2023-08-17T11:14:01.725Z,19.45
2023-08-17T11:15:01.661Z,19.44
2023-08-17T11:16:04.679Z,19.33
2023-08-17T11:17:06.548Z,19.33
2023-08-17T11:18:02.656Z,19.39
2023-08-17T11:19:01.678Z,19.40
2023-08-17T11:20:01.637Z,19.39
2023-08-17T11:21:01.590Z,19.48
2023-08-17T11:22:01.569Z,19.58
2023-08-17T11:23:01.620Z,19.69
2023-08-17T11:24:01.747Z,19.69
2023-08-17T11:25:01.529Z,19.73
2023-08-17T11:26:01.556Z,19.71
2023-08-17T11:27:01.511Z,19.76
2023-08-17T11:28:01.494Z,19.88
2023-08-17T11:29:01.472Z,19.91
2023-08-17T11:30:04.683Z,19.94
2023-08-17T11:31:04.455Z,19.94
2023-08-17T11:32:01.479Z,19.96
2023-08-17T11:33:01.447Z,19.96
2023-08-17T11:34:01.439Z,20.02
2023-08-17T11:35:01.394Z,20.02
2023-08-17T11:36:03.941Z,20.04
2023-08-17T11:37:05.394Z,20.06
2023-08-17T11:38:01.354Z,19.96
2023-08-17T11:39:01.362Z,19.82
2023-08-17T11:40:01.340Z,19.74
2023-08-17T11:41:01.306Z,19.73
2023-08-17T11:42:01.305Z,19.81
2023-08-17T11:43:01.275Z,19.84
2023-08-17T11:44:01.305Z,19.89
2023-08-17T11:45:01.260Z,20.00
2023-08-17T11:46:01.284Z,20.04
2023-08-17T11:47:01.226Z,20.13
2023-08-17T11:48:01.270Z,20.25
2023-08-17T11:49:01.264Z,20.24
2023-08-17T11:50:15.193Z,20.24
2023-08-17T11:51:05.700Z,20.07
2023-08-17T11:52:01.177Z,20.13
2023-08-17T11:53:01.158Z,20.19
2023-08-17T11:54:01.128Z,20.25
2023-08-17T11:55:01.163Z,20.22
2023-08-17T11:56:04.771Z,20.24
2023-08-17T11:57:05.550Z,20.29
2023-08-17T11:58:01.072Z,20.19
2023-08-17T11:59:01.102Z,20.09
2023-08-17T12:00:01.071Z,19.95
2023-08-17T12:01:01.076Z,19.76
2023-08-17T12:02:01.014Z,19.62
2023-08-17T12:03:01.177Z,19.48
2023-08-17T12:04:01.038Z,19.44
2023-08-17T12:05:01.017Z,19.41
2023-08-17T12:06:00.989Z,19.41
2023-08-17T12:07:00.978Z,19.41
2023-08-17T12:08:00.955Z,19.41
2023-08-17T12:09:01.346Z,19.48
2023-08-17T12:10:03.912Z,19.44
2023-08-17T12:11:03.921Z,19.47
2023-08-17T12:12:00.911Z,19.44
2023-08-17T12:13:00.867Z,19.40
2023-08-17T12:14:00.852Z,19.41
2023-08-17T12:15:00.839Z,19.27
2023-08-17T12:16:00.942Z,19.14
2023-08-17T12:17:00.844Z,19.09
2023-08-17T12:18:00.874Z,19.09
2023-08-17T12:19:00.785Z,18.90
2023-08-17T12:20:00.772Z,18.81
2023-08-17T12:21:00.782Z,18.78
2023-08-17T12:22:00.828Z,18.73
2023-08-17T12:23:00.732Z,18.70
2023-08-17T12:24:00.723Z,18.77
2023-08-17T12:25:00.697Z,18.73
2023-08-17T12:26:00.691Z,18.74
2023-08-17T12:27:00.802Z,18.75
2023-08-17T12:28:00.686Z,18.66
2023-08-17T12:29:00.663Z,18.56
2023-08-17T12:30:03.651Z,18.58
2023-08-17T12:31:03.789Z,18.56
2023-08-17T12:32:00.600Z,18.66
2023-08-17T12:33:00.747Z,18.68
2023-08-17T12:34:00.577Z,18.75
2023-08-17T12:35:00.574Z,18.81
2023-08-17T12:36:00.604Z,18.89
2023-08-17T12:37:00.551Z,19.04
2023-08-17T12:38:00.538Z,19.15
2023-08-17T12:39:02.282Z,19.22
2023-08-17T12:40:00.487Z,19.16
2023-08-17T12:42:01.468Z,19.29
2023-08-17T12:43:00.449Z,19.21
2023-08-17T12:44:00.461Z,19.15
2023-08-17T12:45:01.474Z,19.08
2023-08-17T12:46:00.427Z,18.99
2023-08-17T12:47:00.478Z,19.00
2023-08-17T12:48:00.443Z,18.93
2023-08-17T12:49:00.423Z,19.02
2023-08-17T12:50:03.402Z,19.11
2023-08-17T12:51:05.092Z,18.90
2023-08-17T12:52:00.338Z,18.83
2023-08-17T12:53:00.305Z,18.83
2023-08-17T12:54:00.323Z,18.59
2023-08-17T12:55:00.300Z,18.50